Time;durP1;ratioP1;P1;durP2;ratioP2;P2;SDS_P1;SDS_P2;PMS_P1;PMS_P2;Temp;Humidity;BMP_temperature;BMP_pressure;BME280_temperature;BME280_humidity;BME280_pressure;Samples;Min_cycle;Max_cycle;Signal;HPM_P1;HPM_P2
2023/06/13 00:00:32;;;;;;;7.80;4.63;;;;;;;21.90;36.18;101167.72;4976619;28;20061;-85
2023/06/13 00:02:58;;;;;;;7.13;4.53;;;;;;;21.89;36.12;101171.59;4992545;28;20037;-85
2023/06/13 00:05:24;;;;;;;8.47;4.80;;;;;;;21.83;36.65;101170.78;4993494;28;20034;-85
2023/06/13 00:07:50;;;;;;;7.80;4.28;;;;;;;21.81;36.40;101167.50;4978862;28;20034;-85
2023/06/13 00:10:16;;;;;;;5.05;4.25;;;;;;;21.78;36.27;101168.06;4981088;28;20125;-85
2023/06/13 00:12:44;;;;;;;6.83;4.23;;;;;;;21.75;36.23;101165.88;4996769;28;20185;-85
2023/06/13 00:15:11;;;;;;;6.70;4.60;;;;;;;21.66;36.34;101165.63;4981091;28;20038;-85
2023/06/13 00:17:40;;;;;;;9.00;4.25;;;;;;;21.58;36.81;101165.38;4997003;28;20120;-85
2023/06/13 00:20:07;;;;;;;6.53;4.87;;;;;;;21.52;36.54;101165.41;4996711;28;20125;-85
2023/06/13 00:22:35;;;;;;;8.35;4.65;;;;;;;21.44;37.07;101165.16;4996265;28;20026;-85
2023/06/13 00:25:00;;;;;;;5.80;4.15;;;;;;;21.35;37.15;101162.94;4980392;28;20030;-85
2023/06/13 00:27:26;;;;;;;9.40;4.93;;;;;;;21.29;36.82;101161.31;4980069;28;20031;-85
2023/06/13 00:29:52;;;;;;;7.45;4.60;;;;;;;21.19;37.12;101162.16;4980278;28;20046;-84
2023/06/13 00:32:17;;;;;;;6.80;4.80;;;;;;;21.12;37.53;101160.81;4996209;28;20487;-85
2023/06/13 00:34:43;;;;;;;5.97;4.50;;;;;;;21.06;36.96;101162.72;4997712;28;20049;-85
2023/06/13 00:37:13;;;;;;;12.20;4.80;;;;;;;20.94;37.33;101165.78;4996068;28;20038;-85
2023/06/13 00:39:41;;;;;;;5.70;4.32;;;;;;;20.91;37.30;101165.53;4996585;28;20023;-85
2023/06/13 00:42:07;;;;;;;6.82;4.38;;;;;;;20.83;37.59;101166.88;4980057;28;20035;-85
2023/06/13 00:44:33;;;;;;;7.20;4.70;;;;;;;20.79;37.60;101165.81;4980830;28;20101;-85
2023/06/13 00:47:00;;;;;;;8.20;4.63;;;;;;;20.71;37.85;101164.41;4996200;28;20054;-85
2023/06/13 00:49:26;;;;;;;7.80;4.47;;;;;;;20.65;38.30;101157.22;4980151;28;20085;-85
2023/06/13 00:51:54;;;;;;;6.30;4.43;;;;;;;20.64;38.46;101163.84;4996092;28;20375;-84
2023/06/13 00:54:21;;;;;;;9.52;5.18;;;;;;;20.57;38.77;101161.38;4997103;28;20529;-85
2023/06/13 00:56:47;;;;;;;7.05;4.35;;;;;;;20.47;39.27;101164.94;4980199;28;20052;-85
2023/06/13 00:59:13;;;;;;;7.87;4.03;;;;;;;20.40;39.28;101163.53;4996016;28;20549;-85
2023/06/13 01:01:42;;;;;;;7.28;4.45;;;;;;;20.35;39.19;101166.31;4979786;28;20360;-84
2023/06/13 01:04:08;;;;;;;10.95;4.40;;;;;;;20.25;39.41;101156.91;4980138;28;20041;-85
2023/06/13 01:06:38;;;;;;;8.50;4.80;;;;;;;20.20;40.16;101161.59;4979283;28;20129;-85
2023/06/13 01:09:05;;;;;;;7.15;4.00;;;;;;;20.16;40.17;101162.13;4996115;28;20065;-84
2023/06/13 01:11:31;;;;;;;6.25;4.70;;;;;;;20.12;40.55;101154.69;4979840;28;20058;-85
2023/06/13 01:14:07;;;;;;;5.77;3.90;;;;;;;20.07;40.23;101146.41;4995437;28;20379;-85
2023/06/13 01:16:45;;;;;;;9.38;4.40;;;;;;;20.03;40.44;101148.88;4996011;28;20031;-84
2023/06/13 01:19:25;;;;;;;6.25;4.38;;;;;;;19.97;39.74;101149.97;4994136;28;20034;-85
2023/06/13 01:21:53;;;;;;;5.55;4.20;;;;;;;19.87;40.24;101152.69;4996847;28;20029;-84
2023/06/13 01:24:34;;;;;;;6.18;4.40;;;;;;;19.81;40.81;101149.09;4996853;28;20023;-85
2023/06/13 01:27:01;;;;;;;6.47;4.37;;;;;;;19.77;41.06;101167.25;4995834;28;20467;-85
2023/06/13 01:29:29;;;;;;;12.63;4.53;;;;;;;19.70;40.93;101150.97;4979531;28;20121;-85
2023/06/13 01:31:56;;;;;;;6.93;4.32;;;;;;;19.62;41.55;101157.81;4995914;28;20462;-85
2023/06/13 01:34:24;;;;;;;5.85;4.47;;;;;;;19.57;42.10;101159.72;4995331;28;20129;-85
2023/06/13 01:36:50;;;;;;;8.07;4.40;;;;;;;19.49;42.01;101155.56;4995555;28;20058;-85
2023/06/13 01:39:16;;;;;;;8.33;4.37;;;;;;;19.43;41.95;101162.94;4995592;28;20061;-85
2023/06/13 01:41:41;;;;;;;6.35;4.38;;;;;;;19.38;42.36;101156.59;4995089;28;20494;-85
2023/06/13 01:44:11;;;;;;;7.00;4.17;;;;;;;19.33;42.19;101162.91;4995180;28;20030;-85
2023/06/13 01:46:53;;;;;;;8.23;4.75;;;;;;;19.28;41.67;101162.84;4996682;28;20026;-85
2023/06/13 01:49:33;;;;;;;7.85;4.70;;;;;;;19.18;42.60;101158.13;4994830;28;20093;-84
2023/06/13 01:52:36;;;;;;;9.93;4.43;;;;;;;19.13;42.41;101160.84;4995079;28;20463;-84
2023/06/13 01:55:10;;;;;;;14.07;4.47;;;;;;;19.08;43.03;101155.31;4994929;28;20039;-85
2023/06/13 01:57:48;;;;;;;6.82;4.60;;;;;;;19.00;43.15;101155.81;4995948;28;20038;-85
2023/06/13 02:00:16;;;;;;;10.90;4.30;;;;;;;18.93;43.85;101154.13;4994859;28;20037;-84
2023/06/13 02:02:43;;;;;;;10.52;4.43;;;;;;;18.88;44.38;101153.25;4996221;28;20378;-85
2023/06/13 02:05:09;;;;;;;5.03;4.13;;;;;;;18.81;44.57;101156.22;4994455;28;20121;-84
2023/06/13 02:07:36;;;;;;;9.50;4.20;;;;;;;18.77;44.54;101150.38;4994858;28;20126;-85
2023/06/13 02:10:05;;;;;;;7.32;4.57;;;;;;;18.74;44.32;101145.41;4995947;28;20046;-85
2023/06/13 02:12:31;;;;;;;8.88;4.30;;;;;;;18.67;44.95;101154.97;4978483;28;20062;-85
2023/06/13 02:14:57;;;;;;;9.50;4.43;;;;;;;18.62;45.80;101153.03;4995048;28;20037;-85
2023/06/13 02:17:23;;;;;;;6.32;4.10;;;;;;;18.56;45.46;101154.91;4995180;28;20034;-85
2023/06/13 02:19:51;;;;;;;6.07;3.90;;;;;;;18.52;46.98;101163.94;4978121;28;20038;-85
2023/06/13 02:22:16;;;;;;;5.90;4.40;;;;;;;18.48;46.26;101163.59;4978127;28;20041;-84
2023/06/13 02:24:42;;;;;;;9.60;4.70;;;;;;;18.46;46.42;101152.06;4995419;28;20023;-84
2023/06/13 02:27:10;;;;;;;6.77;4.17;;;;;;;18.38;46.99;101160.75;4994706;28;20035;-84
2023/06/13 02:29:36;;;;;;;6.57;3.92;;;;;;;18.33;46.38;101153.31;4994265;28;20037;-84
2023/06/13 02:32:02;;;;;;;7.30;4.38;;;;;;;18.30;45.85;101150.25;4994678;28;20117;-85
2023/06/13 02:34:28;;;;;;;8.67;4.30;;;;;;;18.26;47.14;101158.19;4995524;28;20550;-84
2023/06/13 02:36:53;;;;;;;8.07;4.40;;;;;;;18.23;46.94;101159.56;4977968;28;20470;-85
2023/06/13 02:39:18;;;;;;;8.03;4.60;;;;;;;18.20;46.79;101153.72;4961650;28;20286;-85
2023/06/13 02:41:44;;;;;;;6.10;4.57;;;;;;;18.13;46.98;101153.94;4994786;28;20042;-84
2023/06/13 02:44:12;;;;;;;8.43;5.20;;;;;;;18.09;47.82;101160.22;4995313;28;20030;-84
2023/06/13 02:46:37;;;;;;;6.32;4.60;;;;;;;18.08;48.13;101159.38;4994514;28;20378;-84
2023/06/13 02:49:03;;;;;;;9.87;4.53;;;;;;;18.00;47.59;101163.41;4977732;28;20067;-85
2023/06/13 02:51:28;;;;;;;6.93;5.03;;;;;;;17.99;48.41;101161.75;4977525;28;20064;-84
2023/06/13 02:53:53;;;;;;;10.35;4.50;;;;;;;17.94;48.31;101158.09;4993968;28;20066;-85
2023/06/13 02:56:19;;;;;;;9.13;4.53;;;;;;;17.88;48.18;101157.22;4994122;28;20030;-84
2023/06/13 02:58:44;;;;;;;9.20;4.93;;;;;;;17.85;48.69;101158.56;4993806;28;20070;-84
2023/06/13 03:01:10;;;;;;;7.43;4.70;;;;;;;17.85;50.18;101163.22;4993980;28;20033;-84
2023/06/13 03:03:37;;;;;;;8.38;5.03;;;;;;;17.81;49.13;101153.84;4993707;28;20034;-84
2023/06/13 03:06:02;;;;;;;7.85;5.45;;;;;;;17.73;49.19;101157.88;4993349;28;20137;-84
2023/06/13 03:08:28;;;;;;;7.50;4.73;;;;;;;17.71;49.38;101158.09;4993677;28;20128;-84
2023/06/13 03:10:53;;;;;;;10.47;4.70;;;;;;;17.70;50.10;101156.47;4977446;28;20041;-85
2023/06/13 03:13:19;;;;;;;11.95;5.18;;;;;;;17.65;49.55;101161.06;4977225;28;20080;-84
2023/06/13 03:15:47;;;;;;;7.57;5.00;;;;;;;17.65;50.00;101163.78;4993478;28;20029;-85
2023/06/13 03:18:14;;;;;;;8.63;5.70;;;;;;;17.62;51.14;101164.31;4993713;28;20493;-84
2023/06/13 03:20:46;;;;;;;5.63;4.93;;;;;;;17.61;51.16;101160.75;4993447;28;20026;-84
2023/06/13 03:23:14;;;;;;;9.50;5.40;;;;;;;17.59;51.18;101160.16;4993674;28;20030;-84
2023/06/13 03:25:40;;;;;;;12.23;5.50;;;;;;;17.55;50.63;101164.47;4993336;28;20030;-84
2023/06/13 03:28:09;;;;;;;7.57;5.25;;;;;;;17.52;51.04;101154.03;4994257;28;20463;-85
2023/06/13 03:30:35;;;;;;;13.63;5.50;;;;;;;17.47;51.63;101154.78;4976863;28;20482;-84
2023/06/13 03:33:01;;;;;;;9.75;5.13;;;;;;;17.48;51.12;101155.59;4977702;28;20096;-84
2023/06/13 03:35:27;;;;;;;8.88;5.07;;;;;;;17.47;51.52;101153.97;4993502;28;20458;-84
2023/06/13 03:37:52;;;;;;;7.77;5.40;;;;;;;17.47;52.14;101156.72;4993246;28;20578;-84
2023/06/13 03:40:17;;;;;;;11.18;6.03;;;;;;;17.44;51.37;101152.56;4977009;28;20459;-84
2023/06/13 03:42:43;;;;;;;14.50;5.50;;;;;;;17.44;51.77;101149.81;4992539;28;20068;-85
2023/06/13 03:45:09;;;;;;;7.43;5.50;;;;;;;17.44;51.85;101157.22;4960503;28;20041;-84
2023/06/13 03:47:34;;;;;;;10.18;5.63;;;;;;;17.44;52.03;101151.72;4993089;28;20387;-84
2023/06/13 03:50:00;;;;;;;8.80;5.50;;;;;;;17.41;52.42;101152.25;4993093;28;20467;-84
2023/06/13 03:52:25;;;;;;;9.70;6.20;;;;;;;17.42;51.32;101149.25;4993017;28;20438;-84
2023/06/13 03:54:51;;;;;;;6.97;5.40;;;;;;;17.43;52.28;101156.38;4992856;28;20077;-84
2023/06/13 03:57:17;;;;;;;8.23;5.57;;;;;;;17.46;52.74;101149.56;4992985;28;20026;-85
2023/06/13 03:59:45;;;;;;;8.38;5.40;;;;;;;17.48;52.14;101158.34;4993916;28;20039;-85
2023/06/13 04:02:13;;;;;;;6.55;5.43;;;;;;;17.48;52.85;101155.59;4992710;28;20502;-84
2023/06/13 04:04:42;;;;;;;9.63;6.00;;;;;;;17.48;51.94;101156.44;4994794;28;20455;-84
2023/06/13 04:07:08;;;;;;;10.05;5.63;;;;;;;17.47;52.35;101156.72;4992980;28;20084;-85
2023/06/13 04:09:34;;;;;;;7.47;5.35;;;;;;;17.51;52.29;101164.16;4992847;28;20103;-84
2023/06/13 04:12:00;;;;;;;10.47;6.07;;;;;;;17.51;52.38;101157.88;4992588;28;20197;-84
2023/06/13 04:14:26;;;;;;;7.30;5.43;;;;;;;17.49;52.29;101160.88;4993742;28;20499;-84
2023/06/13 04:16:52;;;;;;;7.93;6.05;;;;;;;17.54;52.19;101152.69;4992831;28;20053;-84
2023/06/13 04:19:18;;;;;;;10.30;6.23;;;;;;;17.52;52.35;101160.34;4992796;28;20089;-84
2023/06/13 04:21:49;;;;;;;8.68;6.13;;;;;;;17.51;52.19;101153.19;4992418;28;20066;-84
2023/06/13 04:24:15;;;;;;;10.63;5.90;;;;;;;17.58;52.64;101157.66;4992557;28;20039;-84
2023/06/13 04:26:41;;;;;;;8.40;5.80;;;;;;;17.62;52.69;101164.31;4992733;28;20096;-85
2023/06/13 04:29:09;;;;;;;8.57;5.57;;;;;;;17.64;53.85;101162.97;4993649;28;20034;-84
2023/06/13 04:31:36;;;;;;;9.63;5.65;;;;;;;17.68;52.80;101163.28;4994241;28;20117;-84
2023/06/13 04:34:07;;;;;;;9.20;5.30;;;;;;;17.70;52.51;101161.94;4976568;28;20138;-84
2023/06/13 04:36:35;;;;;;;12.43;5.50;;;;;;;17.70;52.42;101169.31;4993727;28;20079;-84
2023/06/13 04:39:05;;;;;;;15.88;6.05;;;;;;;17.71;52.52;101168.25;4992745;28;20030;-84
2023/06/13 04:41:37;;;;;;;10.82;5.57;;;;;;;17.75;52.38;101176.81;4992712;28;20026;-84
2023/06/13 04:44:09;;;;;;;13.70;6.82;;;;;;;17.77;51.97;101182.88;4992833;28;20057;-85
2023/06/13 04:46:36;;;;;;;8.50;6.00;;;;;;;17.77;52.15;101177.38;4993376;28;20368;-85
2023/06/13 04:49:02;;;;;;;9.20;6.30;;;;;;;17.78;52.09;101173.56;4993985;28;20125;-84
2023/06/13 04:51:32;;;;;;;8.90;5.88;;;;;;;17.80;51.96;101179.63;4993741;28;20026;-84
2023/06/13 04:54:00;;;;;;;8.02;5.47;;;;;;;17.82;52.19;101178.28;4993871;28;20030;-84
2023/06/13 04:56:27;;;;;;;14.25;6.28;;;;;;;17.87;51.89;101183.00;4995749;28;20033;-85
2023/06/13 04:58:53;;;;;;;10.35;5.90;;;;;;;17.93;52.34;101184.75;4996192;28;20030;-84
2023/06/13 05:01:20;;;;;;;8.53;6.20;;;;;;;17.93;51.60;101183.94;4995866;28;20121;-84
2023/06/13 05:03:47;;;;;;;9.30;6.38;;;;;;;17.93;52.96;101187.50;4979892;28;20118;-84
2023/06/13 05:06:12;;;;;;;8.60;6.82;;;;;;;17.94;51.91;101183.66;4979372;28;20041;-85
2023/06/13 05:08:38;;;;;;;8.07;6.63;;;;;;;17.97;52.03;101188.63;4995831;28;20034;-85
2023/06/13 05:11:04;;;;;;;10.07;7.10;;;;;;;18.03;52.96;101195.84;4979558;28;20034;-84
2023/06/13 05:13:30;;;;;;;11.98;7.20;;;;;;;18.06;52.39;101192.56;4979572;28;20074;-84
2023/06/13 05:15:55;;;;;;;9.00;6.73;;;;;;;18.08;51.62;101188.75;4981514;28;20131;-84
2023/06/13 05:18:29;;;;;;;10.03;7.30;;;;;;;18.15;51.87;101197.63;4995724;28;20645;-84
2023/06/13 05:20:56;;;;;;;9.70;6.18;;;;;;;18.21;51.83;101188.34;4995819;28;20027;-84
2023/06/13 05:23:24;;;;;;;11.23;6.55;;;;;;;18.24;52.00;101196.06;4997338;28;20100;-85
2023/06/13 05:25:52;;;;;;;11.67;6.73;;;;;;;18.31;51.51;101202.19;4995608;28;20030;-87
2023/06/13 05:28:18;;;;;;;8.10;6.40;;;;;;;18.39;51.71;101199.00;4979037;28;20035;-86
2023/06/13 05:30:44;;;;;;;10.18;6.45;;;;;;;18.45;51.60;101202.59;4995014;28;20092;-85
2023/06/13 05:33:10;;;;;;;10.02;5.72;;;;;;;18.59;51.21;101198.34;4996197;28;20026;-88
2023/06/13 05:35:38;;;;;;;8.03;5.53;;;;;;;18.64;51.25;101203.06;4995383;28;20126;-88
2023/06/13 05:38:03;;;;;;;14.68;6.45;;;;;;;18.80;50.03;101197.69;4995755;28;20558;-87
2023/06/13 05:40:31;;;;;;;9.90;6.13;;;;;;;18.93;49.58;101205.53;4995243;28;20125;-86
2023/06/13 05:43:00;;;;;;;10.88;6.47;;;;;;;19.04;49.56;101200.94;4995112;28;20121;-87
2023/06/13 05:45:30;;;;;;;13.80;6.28;;;;;;;19.20;49.00;101201.88;4962451;28;20122;-87
2023/06/13 05:47:56;;;;;;;7.55;5.65;;;;;;;19.25;48.37;101193.66;4980187;28;20442;-87
2023/06/13 05:50:29;;;;;;;10.73;6.20;;;;;;;19.26;49.09;101201.63;4994661;28;20073;-86
2023/06/13 05:53:02;;;;;;;7.40;5.57;;;;;;;19.38;48.40;101200.59;4994850;28;20562;-87
2023/06/13 05:55:30;;;;;;;10.90;5.93;;;;;;;19.40;48.13;101195.66;4994896;28;20089;-87
2023/06/13 05:57:56;;;;;;;6.63;5.67;;;;;;;19.48;47.55;101202.59;4996167;28;20113;-86
2023/06/13 06:00:22;;;;;;;13.50;6.03;;;;;;;19.51;48.12;101197.38;4996104;28;20109;-87
2023/06/13 06:02:47;;;;;;;9.93;6.20;;;;;;;19.49;48.00;101202.34;4994362;28;20385;-87
2023/06/13 06:05:19;;;;;;;9.77;5.60;;;;;;;19.57;47.82;101207.31;4977484;28;20049;-87
2023/06/13 06:07:45;;;;;;;9.13;5.80;;;;;;;19.59;47.55;101210.66;4994277;28;20032;-87
2023/06/13 06:10:17;;;;;;;12.00;5.57;;;;;;;19.59;48.01;101210.66;4993934;28;20062;-87
2023/06/13 06:12:43;;;;;;;12.63;5.90;;;;;;;19.63;47.69;101211.78;4994028;28;20050;-87
2023/06/13 06:15:13;;;;;;;13.15;5.72;;;;;;;19.70;47.94;101207.94;4993817;28;20034;-85
2023/06/13 06:17:39;;;;;;;9.83;6.00;;;;;;;19.68;47.95;101204.63;4977623;28;20498;-86
2023/06/13 06:20:06;;;;;;;16.30;5.80;;;;;;;19.73;48.01;101215.66;4978383;28;20044;-87
2023/06/13 06:22:31;;;;;;;12.20;6.07;;;;;;;19.75;47.78;101206.06;4977594;28;20030;-86
2023/06/13 06:24:57;;;;;;;10.27;5.30;;;;;;;19.85;47.50;101218.22;4994298;28;20031;-86
2023/06/13 06:27:22;;;;;;;12.77;6.00;;;;;;;19.94;47.02;101208.34;4995234;28;20374;-86
2023/06/13 06:29:48;;;;;;;10.07;5.80;;;;;;;19.98;47.35;101210.28;4962312;28;20038;-87
2023/06/13 06:32:13;;;;;;;7.57;5.28;;;;;;;20.04;47.74;101202.88;4994046;28;20034;-86
2023/06/13 06:34:41;;;;;;;11.97;5.67;;;;;;;20.12;46.53;101213.38;4994934;28;20027;-86
2023/06/13 06:37:07;;;;;;;10.15;5.60;;;;;;;20.18;46.98;101213.38;4993980;28;20085;-86
2023/06/13 06:39:34;;;;;;;9.45;5.45;;;;;;;20.18;46.31;101208.69;4994219;28;20029;-87
2023/06/13 06:42:05;;;;;;;9.10;5.53;;;;;;;20.26;46.48;101205.41;4994855;28;20038;-87
2023/06/13 06:44:31;;;;;;;8.13;5.60;;;;;;;20.31;46.58;101202.69;4993689;28;20030;-87
2023/06/13 06:46:59;;;;;;;13.17;5.80;;;;;;;20.33;47.36;101210.66;4993823;28;20463;-88
2023/06/13 06:49:25;;;;;;;13.30;5.73;;;;;;;20.46;46.30;101201.03;4993673;28;20281;-88
2023/06/13 06:51:56;;;;;;;10.90;5.47;;;;;;;20.55;46.40;101198.56;4993783;28;20026;-88
2023/06/13 06:54:25;;;;;;;7.97;5.50;;;;;;;20.61;45.66;101197.47;4994324;28;20042;-88
2023/06/13 06:56:52;;;;;;;9.80;5.95;;;;;;;20.66;45.59;101203.03;4994114;28;20498;-87
2023/06/13 06:59:18;;;;;;;14.10;5.72;;;;;;;20.74;45.28;101198.88;4993882;28;20041;-86
2023/06/13 07:01:46;;;;;;;9.40;6.13;;;;;;;20.77;45.55;101198.34;4994137;28;20030;-88
2023/06/13 07:04:12;;;;;;;10.98;5.78;;;;;;;20.78;45.40;101202.75;4994810;28;20042;-89
2023/06/13 07:06:40;;;;;;;13.47;5.90;;;;;;;20.79;45.69;101199.72;4994543;28;20124;-87
2023/06/13 07:09:11;;;;;;;13.55;5.97;;;;;;;20.81;45.55;101200.25;4993495;28;20022;-86
2023/06/13 07:11:39;;;;;;;8.73;6.03;;;;;;;20.84;45.71;101207.97;4993118;28;20038;-86
2023/06/13 07:14:04;;;;;;;11.20;5.95;;;;;;;20.83;46.23;101206.34;4993436;28;20058;-85
2023/06/13 07:16:30;;;;;;;10.10;5.53;;;;;;;20.83;45.42;101203.59;4993101;28;20399;-86
2023/06/13 07:18:55;;;;;;;8.97;5.53;;;;;;;20.87;45.68;101211.31;4977295;28;20054;-86
2023/06/13 07:21:23;;;;;;;10.35;5.80;;;;;;;20.88;46.06;101213.78;4977644;28;20054;-86
2023/06/13 07:23:49;;;;;;;8.67;5.70;;;;;;;20.91;45.32;101213.22;4993460;28;20503;-86
2023/06/13 07:26:15;;;;;;;12.85;6.07;;;;;;;20.95;45.41;101210.72;4992900;28;20027;-86
2023/06/13 07:28:41;;;;;;;7.63;5.53;;;;;;;21.03;44.89;101215.69;4993163;28;20030;-86
2023/06/13 07:31:06;;;;;;;8.45;5.97;;;;;;;21.08;45.44;101214.88;4993171;28;20045;-86
2023/06/13 07:33:32;;;;;;;7.27;5.63;;;;;;;21.10;45.14;101207.97;4993096;28;20466;-85
2023/06/13 07:35:57;;;;;;;12.18;6.00;;;;;;;21.12;45.17;101213.22;4993284;28;20364;-86
2023/06/13 07:38:31;;;;;;;11.17;5.87;;;;;;;21.15;45.07;101209.91;4993897;28;20034;-88
2023/06/13 07:41:02;;;;;;;7.88;5.13;;;;;;;21.21;45.28;101206.03;4993286;28;20038;-86
2023/06/13 07:43:27;;;;;;;10.63;5.10;;;;;;;21.28;44.30;101209.31;4976972;28;20034;-86
2023/06/13 07:45:56;;;;;;;10.50;5.37;;;;;;;21.33;44.75;101202.97;4993018;28;20030;-86
2023/06/13 07:48:31;;;;;;;8.15;5.10;;;;;;;21.40;45.38;101203.50;4976555;28;20558;-86
2023/06/13 07:51:00;;;;;;;12.60;5.68;;;;;;;21.45;45.21;101203.50;4994558;28;20084;-86
2023/06/13 07:53:26;;;;;;;13.20;5.40;;;;;;;21.50;45.45;101211.78;4992995;28;20033;-86
2023/06/13 07:55:55;;;;;;;11.57;5.72;;;;;;;21.60;44.28;101212.84;4992923;28;20034;-86
2023/06/13 07:58:21;;;;;;;9.25;5.00;;;;;;;21.63;43.84;101202.09;4992740;28;20033;-86
2023/06/13 08:00:46;;;;;;;9.70;5.10;;;;;;;21.65;43.93;101205.38;4976708;28;20034;-86
2023/06/13 08:03:12;;;;;;;8.53;5.00;;;;;;;21.71;43.35;101207.00;4976605;28;20030;-85
2023/06/13 08:05:37;;;;;;;14.48;6.00;;;;;;;21.76;44.14;101213.63;4993796;28;20113;-86
2023/06/13 08:08:03;;;;;;;10.67;5.47;;;;;;;21.82;43.36;101204.22;4992521;28;20022;-86
2023/06/13 08:10:28;;;;;;;12.27;5.33;;;;;;;21.84;43.86;101210.31;4993514;28;20037;-86
2023/06/13 08:13:04;;;;;;;15.50;5.32;;;;;;;21.87;44.04;101209.72;4992516;28;20050;-86
2023/06/13 08:15:30;;;;;;;11.20;5.60;;;;;;;21.98;43.71;101204.97;4993483;28;20038;-86
2023/06/13 08:17:57;;;;;;;8.90;5.33;;;;;;;22.07;43.04;101209.63;4977264;28;20352;-86
2023/06/13 08:20:22;;;;;;;10.70;5.47;;;;;;;22.13;43.32;101207.69;4992972;28;20522;-86
2023/06/13 08:22:50;;;;;;;12.07;6.07;;;;;;;22.15;43.37;101202.69;4976379;28;20125;-86
2023/06/13 08:25:16;;;;;;;10.98;5.70;;;;;;;22.20;43.19;101215.63;4992598;28;20117;-86
2023/06/13 08:27:46;;;;;;;10.93;5.83;;;;;;;22.25;42.78;101204.56;4992732;28;20514;-85
2023/06/13 08:30:12;;;;;;;12.65;7.57;;;;;;;22.32;43.22;101207.03;4997396;28;20031;-86
2023/06/13 08:32:41;;;;;;;13.70;5.97;;;;;;;22.39;42.43;101211.13;4996832;28;20034;-87
2023/06/13 08:35:07;;;;;;;11.65;5.50;;;;;;;22.42;42.98;101213.31;4996497;28;20029;-86
2023/06/13 08:37:36;;;;;;;10.43;5.20;;;;;;;22.49;43.01;101199.19;4996515;28;20430;-86
2023/06/13 08:40:04;;;;;;;10.32;5.78;;;;;;;22.57;43.22;101201.34;4980464;28;20042;-86
2023/06/13 08:42:31;;;;;;;10.10;5.60;;;;;;;22.69;42.44;101205.66;4980410;28;20089;-86
2023/06/13 08:44:59;;;;;;;12.27;5.60;;;;;;;22.77;41.62;101197.56;4979995;28;20045;-86
2023/06/13 08:47:25;;;;;;;10.50;5.05;;;;;;;22.84;41.49;101196.41;4996559;28;20027;-86
2023/06/13 08:49:50;;;;;;;8.53;5.10;;;;;;;22.94;41.31;101193.56;4996408;28;20121;-86
2023/06/13 08:52:20;;;;;;;11.20;5.40;;;;;;;23.03;41.62;101194.59;4997333;28;20028;-86
2023/06/13 08:54:54;;;;;;;11.73;5.90;;;;;;;23.14;41.01;101192.56;4995979;28;20027;-86
2023/06/13 08:57:24;;;;;;;10.90;5.35;;;;;;;23.27;40.60;101188.31;4995681;28;20062;-85
2023/06/13 08:59:59;;;;;;;10.98;5.03;;;;;;;23.41;39.57;101188.41;4996132;28;20126;-85
2023/06/13 09:02:25;;;;;;;8.20;5.10;;;;;;;23.44;39.73;101174.84;4995773;28;20034;-86
2023/06/13 09:04:51;;;;;;;11.43;5.20;;;;;;;23.53;39.10;101185.25;4995805;28;20030;-86
2023/06/13 09:07:18;;;;;;;7.57;5.30;;;;;;;23.57;38.29;101173.28;4995747;28;20121;-86
2023/06/13 09:09:45;;;;;;;9.55;5.57;;;;;;;23.60;38.38;101172.69;4995331;28;20026;-86
2023/06/13 09:12:16;;;;;;;8.30;5.55;;;;;;;23.71;38.26;101176.16;4995169;28;20049;-86
2023/06/13 09:14:42;;;;;;;13.40;5.30;;;;;;;23.85;38.29;101180.97;4995639;28;20053;-86
2023/06/13 09:17:08;;;;;;;9.85;5.88;;;;;;;23.93;38.13;101177.56;4995344;28;20038;-86
2023/06/13 09:19:34;;;;;;;15.50;6.33;;;;;;;24.02;37.88;101174.94;4979909;28;20046;-86
2023/06/13 09:22:03;;;;;;;10.10;5.33;;;;;;;24.10;37.63;101175.09;4997242;28;20372;-86
2023/06/13 09:24:32;;;;;;;7.55;5.88;;;;;;;24.19;38.12;101177.22;4997197;28;20035;-86
2023/06/13 09:27:01;;;;;;;11.65;6.00;;;;;;;24.32;37.98;101185.59;4995058;28;20610;-86
2023/06/13 09:29:32;;;;;;;14.32;5.63;;;;;;;24.48;37.42;101175.09;4979701;28;20037;-85
2023/06/13 09:32:01;;;;;;;8.65;5.47;;;;;;;24.56;36.94;101172.75;4995447;28;20054;-86
2023/06/13 09:34:29;;;;;;;8.63;5.10;;;;;;;24.67;36.52;101166.78;4994985;28;20064;-86
2023/06/13 09:36:56;;;;;;;9.73;5.30;;;;;;;24.82;37.08;101173.19;4995033;28;20030;-85
2023/06/13 09:39:30;;;;;;;14.15;5.50;;;;;;;24.90;36.30;101163.34;4995022;28;20057;-85
2023/06/13 09:41:57;;;;;;;10.52;5.00;;;;;;;25.02;36.09;101158.97;4995317;28;20053;-85
2023/06/13 09:44:24;;;;;;;6.90;5.28;;;;;;;25.15;35.95;101160.09;4995196;28;20041;-86
2023/06/13 09:46:53;;;;;;;10.93;5.50;;;;;;;25.28;35.49;101169.56;4995088;28;20034;-85
2023/06/13 09:49:24;;;;;;;7.25;6.10;;;;;;;25.41;34.49;101161.56;4995233;28;20386;-86
2023/06/13 09:51:52;;;;;;;12.25;4.97;;;;;;;25.56;33.87;101162.09;4995273;28;20440;-86
2023/06/13 09:54:18;;;;;;;9.30;5.53;;;;;;;25.67;33.95;101162.69;4994476;28;20372;-86
2023/06/13 09:56:43;;;;;;;8.90;5.00;;;;;;;25.82;34.25;101167.13;4994787;28;20117;-86
2023/06/13 09:59:21;;;;;;;11.30;5.10;;;;;;;25.97;33.82;101157.63;4994831;28;20626;-86
2023/06/13 10:01:47;;;;;;;9.18;4.90;;;;;;;26.07;32.85;101157.41;4994811;28;20037;-86
2023/06/13 10:04:13;;;;;;;8.80;4.80;;;;;;;26.21;32.97;101159.31;4996033;28;20065;-86
2023/06/13 10:06:39;;;;;;;7.07;4.90;;;;;;;26.29;33.07;101164.13;4994568;28;20117;-86
2023/06/13 10:09:04;;;;;;;11.00;5.10;;;;;;;26.41;31.94;101158.00;4994618;28;20172;-86
2023/06/13 10:11:35;;;;;;;6.22;4.70;;;;;;;26.51;31.77;101156.94;4978245;28;20056;-86
2023/06/13 10:14:22;;;;;;;9.17;4.83;;;;;;;26.64;32.00;101156.03;4994129;28;20054;-86
2023/06/13 10:16:51;;;;;;;13.15;5.05;;;;;;;26.75;30.21;101159.41;4994589;28;20049;-86
2023/06/13 10:19:22;;;;;;;15.60;4.82;;;;;;;26.90;30.87;101158.19;4994480;28;20030;-86
2023/06/13 10:21:47;;;;;;;9.45;4.57;;;;;;;27.06;30.23;101151.09;4994694;28;20034;-86
2023/06/13 10:24:19;;;;;;;7.57;4.73;;;;;;;27.05;29.27;101160.56;4993981;28;20064;-86
2023/06/13 10:26:46;;;;;;;9.05;4.80;;;;;;;27.15;28.78;101153.91;4994190;28;20072;-86
2023/06/13 10:29:35;;;;;;;7.68;4.57;;;;;;;27.33;29.71;101152.06;4977833;28;20030;-87
2023/06/13 10:32:32;;;;;;;7.25;4.45;;;;;;;27.52;28.58;101162.94;4994628;28;20031;-86
2023/06/13 10:35:35;;;;;;;11.07;4.90;;;;;;;27.80;29.28;101159.84;4994228;28;20041;-86
2023/06/13 10:38:12;;;;;;;5.50;4.90;;;;;;;27.95;28.29;101159.41;4994083;28;20026;-87
2023/06/13 10:41:13;;;;;;;9.40;4.72;;;;;;;28.05;28.40;101154.69;4994544;28;20038;-88
2023/06/13 10:44:07;;;;;;;12.43;5.40;;;;;;;28.16;28.56;101153.22;4994497;28;20467;-89
2023/06/13 10:46:33;;;;;;;7.57;4.78;;;;;;;28.34;27.99;101149.25;4993735;28;20037;-88
2023/06/13 10:49:04;;;;;;;6.63;4.90;;;;;;;28.57;27.51;101149.09;4995526;28;20088;-86
2023/06/13 10:51:36;;;;;;;8.13;4.70;;;;;;;28.87;27.19;101158.41;4962634;28;20030;-89
2023/06/13 10:54:05;;;;;;;9.57;4.65;;;;;;;29.08;27.12;101148.50;4994262;28;20038;-87
2023/06/13 10:56:42;;;;;;;11.18;5.05;;;;;;;29.29;26.18;101152.22;4993486;28;20038;-87
2023/06/13 10:59:14;;;;;;;5.63;4.68;;;;;;;29.44;25.89;101153.63;4993652;28;20033;-86
2023/06/13 11:01:44;;;;;;;5.63;4.53;;;;;;;29.51;24.54;101133.50;4993614;28;20029;-88
2023/06/13 11:04:13;;;;;;;5.20;4.70;;;;;;;29.69;24.26;101140.66;4993910;28;20089;-87
2023/06/13 11:06:44;;;;;;;9.10;4.85;;;;;;;29.96;24.19;101132.13;4994371;28;20065;-87
2023/06/13 11:09:15;;;;;;;6.97;4.78;;;;;;;30.27;24.02;101132.47;4977494;28;20038;-87
2023/06/13 11:12:10;;;;;;;9.02;4.70;;;;;;;30.60;24.65;101128.91;4995125;28;20030;-87
2023/06/13 11:14:39;;;;;;;7.28;5.00;;;;;;;30.71;22.58;101128.44;4991290;28;20058;-87
2023/06/13 11:17:15;;;;;;;;;;;;;;;;;;;;;
2023/06/13 11:19:41;;;;;;;7.03;4.63;;;;;;;31.73;22.33;101136.25;4994521;28;20443;-87
2023/06/13 11:22:12;;;;;;;7.35;4.40;;;;;;;33.97;20.49;101128.94;4992746;28;20121;-87
2023/06/13 11:24:47;;;;;;;6.17;4.60;;;;;;;37.13;17.87;101140.59;4993250;28;20057;-87
2023/06/13 11:27:16;;;;;;;6.80;4.50;;;;;;;39.31;16.19;101130.53;4994570;28;20030;-87
2023/06/13 11:29:48;;;;;;;7.43;4.70;;;;;;;40.50;14.74;101128.09;4993290;28;20045;-87